createdAt,value
2024-05-09T00:01:33.408Z,2.31
2024-05-09T00:04:18.839Z,2.21
2024-05-09T00:06:49.804Z,2.29
2024-05-09T00:09:28.562Z,2.17
2024-05-09T00:12:02.894Z,2.12
2024-05-09T00:14:40.206Z,2.21
2024-05-09T00:17:17.694Z,2.09
2024-05-09T00:19:57.775Z,2.04
2024-05-09T00:22:30.398Z,2.06
2024-05-09T00:25:02.529Z,1.94
2024-05-09T00:27:36.090Z,1.90
2024-05-09T00:30:31.066Z,1.81
2024-05-09T00:33:10.098Z,1.93
2024-05-09T00:35:55.756Z,1.74
2024-05-09T00:38:29.190Z,1.73
2024-05-09T00:41:03.200Z,1.83
2024-05-09T00:43:34.398Z,1.87
2024-05-09T00:46:07.546Z,1.71
2024-05-09T00:48:39.725Z,1.74
2024-05-09T00:51:13.793Z,1.73
2024-05-09T00:53:45.218Z,1.66
2024-05-09T00:56:17.705Z,1.62
2024-05-09T00:58:48.833Z,1.58
2024-05-09T01:01:31.374Z,1.51
2024-05-09T01:04:05.453Z,1.55
2024-05-09T01:06:39.069Z,1.40
2024-05-09T01:09:10.182Z,1.48
2024-05-09T01:12:04.430Z,1.49
2024-05-09T01:14:39.951Z,1.36
2024-05-09T01:17:13.093Z,1.42
2024-05-09T01:19:48.175Z,1.34
2024-05-09T01:22:27.645Z,1.41
2024-05-09T01:25:02.276Z,1.40
2024-05-09T01:27:36.228Z,1.32
2024-05-09T01:30:11.894Z,1.39
2024-05-09T01:32:48.643Z,1.34
2024-05-09T01:35:23.652Z,1.30
2024-05-09T01:37:55.671Z,1.34
2024-05-09T01:40:37.573Z,1.28
2024-05-09T01:43:13.468Z,1.34
2024-05-09T01:46:05.641Z,1.39
2024-05-09T01:48:43.012Z,1.28
2024-05-09T01:51:18.383Z,1.30
2024-05-09T01:53:51.592Z,1.27
2024-05-09T01:56:29.244Z,1.12
2024-05-09T01:59:00.622Z,1.20
2024-05-09T02:01:55.546Z,1.24
2024-05-09T02:04:25.921Z,1.17
2024-05-09T02:06:57.184Z,1.25
2024-05-09T02:12:20.167Z,1.19
2024-05-09T02:14:52.056Z,1.29
2024-05-09T02:17:25.044Z,1.48
2024-05-09T02:19:56.418Z,1.83
2024-05-09T02:22:29.053Z,1.93
2024-05-09T02:25:00.329Z,2.30
2024-05-09T02:27:33.811Z,2.47
2024-05-09T02:30:12.257Z,2.58
2024-05-09T02:32:50.226Z,2.93
2024-05-09T02:35:18.714Z,3.07
2024-05-09T02:37:51.784Z,3.35
2024-05-09T02:40:28.377Z,3.44
2024-05-09T02:43:08.052Z,3.70
2024-05-09T02:45:37.163Z,3.83
2024-05-09T02:48:12.668Z,3.87
2024-05-09T02:50:45.289Z,4.02
2024-05-09T02:53:19.981Z,4.01
2024-05-09T02:55:52.916Z,4.13
2024-05-09T02:58:37.074Z,4.18
2024-05-09T03:01:06.911Z,4.21
2024-05-09T03:03:39.620Z,4.15
2024-05-09T03:06:08.314Z,4.24
2024-05-09T03:08:40.750Z,4.33
2024-05-09T03:11:10.554Z,4.40
2024-05-09T03:13:46.041Z,4.39
2024-05-09T03:16:16.500Z,4.20
2024-05-09T03:18:47.581Z,4.03
2024-05-09T03:21:21.969Z,3.70
2024-05-09T03:23:53.688Z,3.40
2024-05-09T03:26:21.996Z,3.16
2024-05-09T03:28:56.823Z,3.00
2024-05-09T03:31:26.739Z,2.81
2024-05-09T03:33:58.420Z,2.88
2024-05-09T03:36:31.255Z,2.95
2024-05-09T03:39:08.396Z,2.85
2024-05-09T03:41:47.479Z,2.82
2024-05-09T03:44:28.158Z,2.89
2024-05-09T03:46:59.392Z,2.87
2024-05-09T03:49:32.771Z,3.00
2024-05-09T03:52:05.311Z,3.00
2024-05-09T03:54:38.939Z,3.02
2024-05-09T03:57:10.371Z,3.09
2024-05-09T03:59:45.763Z,3.12
2024-05-09T04:02:16.002Z,3.15
2024-05-09T04:04:51.093Z,3.20
2024-05-09T04:07:27.085Z,3.31
2024-05-09T04:09:57.884Z,3.25
2024-05-09T04:12:26.138Z,3.13
2024-05-09T04:14:59.740Z,3.46
2024-05-09T04:17:28.736Z,3.37
2024-05-09T04:20:02.145Z,3.52
2024-05-09T04:22:33.422Z,3.64
2024-05-09T04:25:04.335Z,3.72
2024-05-09T04:27:32.591Z,3.75
2024-05-09T04:30:10.046Z,3.77
2024-05-09T04:32:44.036Z,3.83
2024-05-09T04:35:18.688Z,3.81
2024-05-09T04:37:47.436Z,3.89
2024-05-09T04:40:30.778Z,3.96
2024-05-09T04:43:02.554Z,4.05
2024-05-09T04:45:36.337Z,4.02
2024-05-09T04:48:06.996Z,4.02
2024-05-09T04:50:39.876Z,4.21
2024-05-09T04:53:16.441Z,4.10
2024-05-09T04:55:50.120Z,4.21
2024-05-09T04:58:20.590Z,4.21
2024-05-09T05:00:57.576Z,4.37
2024-05-09T05:03:36.097Z,4.34
2024-05-09T05:06:09.226Z,4.48
2024-05-09T05:08:41.415Z,4.59
2024-05-09T05:11:15.469Z,4.45
2024-05-09T05:13:44.047Z,4.51
2024-05-09T05:16:17.916Z,4.42
2024-05-09T05:18:47.692Z,4.46
2024-05-09T05:21:19.257Z,4.65
2024-05-09T05:23:47.509Z,4.76
2024-05-09T05:26:21.018Z,4.81
2024-05-09T05:28:49.287Z,4.72
2024-05-09T05:31:25.554Z,4.67
2024-05-09T05:33:54.468Z,4.76
2024-05-09T05:36:25.324Z,4.95
2024-05-09T05:38:54.344Z,5.12
2024-05-09T05:41:25.358Z,4.96
2024-05-09T05:43:53.607Z,5.04
2024-05-09T05:46:27.104Z,5.10
2024-05-09T05:48:56.904Z,5.07
2024-05-09T05:51:27.983Z,5.23
2024-05-09T05:53:56.276Z,5.28
2024-05-09T05:56:32.141Z,5.37
2024-05-09T05:59:00.569Z,5.04
2024-05-09T06:01:34.439Z,5.23
2024-05-09T06:04:03.268Z,5.26
2024-05-09T06:06:34.131Z,5.27
2024-05-09T06:09:04.830Z,5.54
2024-05-09T06:11:36.562Z,5.57
2024-05-09T06:14:05.793Z,5.44
2024-05-09T06:16:40.904Z,5.63
2024-05-09T06:19:09.145Z,5.68
2024-05-09T06:21:39.943Z,5.61
2024-05-09T06:24:08.190Z,5.76
2024-05-09T06:26:39.098Z,5.79
2024-05-09T06:29:07.267Z,5.49
2024-05-09T06:31:46.509Z,5.86
2024-05-09T06:34:19.148Z,5.93
2024-05-09T06:37:00.050Z,5.70
2024-05-09T06:39:34.282Z,5.79
2024-05-09T06:42:05.188Z,5.79
2024-05-09T06:44:33.761Z,6.05
2024-05-09T06:47:07.905Z,5.75
2024-05-09T06:49:37.812Z,5.95
2024-05-09T06:52:09.784Z,6.10
2024-05-09T06:54:38.216Z,6.05
2024-05-09T06:57:09.104Z,6.20
2024-05-09T06:59:37.565Z,6.18
2024-05-09T07:02:11.214Z,6.29
2024-05-09T07:04:39.568Z,6.37
2024-05-09T07:07:10.412Z,6.52
2024-05-09T07:09:39.202Z,6.30
2024-05-09T07:12:16.151Z,6.41
2024-05-09T07:14:44.627Z,6.21
2024-05-09T07:17:18.424Z,6.37
2024-05-09T07:19:47.343Z,6.42
2024-05-09T07:22:18.344Z,6.49
2024-05-09T07:24:46.512Z,6.46
2024-05-09T07:27:17.521Z,6.43
2024-05-09T07:29:45.812Z,6.62
2024-05-09T07:32:22.253Z,6.49
2024-05-09T07:34:50.790Z,6.60
2024-05-09T07:37:33.330Z,6.68
2024-05-09T07:40:05.800Z,6.44
2024-05-09T07:42:38.008Z,6.55
2024-05-09T07:45:24.245Z,6.54
2024-05-09T07:53:37.891Z,6.56
2024-05-09T07:56:05.880Z,6.68
2024-05-09T07:58:40.070Z,6.76
2024-05-09T08:01:12.924Z,6.85
2024-05-09T08:03:47.836Z,6.92
2024-05-09T08:06:16.478Z,6.89
2024-05-09T08:08:49.142Z,6.85
2024-05-09T08:11:20.720Z,6.80
2024-05-09T08:13:51.599Z,7.01
2024-05-09T08:16:24.403Z,7.05
2024-05-09T08:18:59.131Z,6.93
2024-05-09T08:21:30.745Z,6.84
2024-05-09T08:24:06.048Z,6.84
2024-05-09T08:26:34.506Z,7.06
2024-05-09T08:29:10.473Z,7.03
2024-05-09T08:31:39.011Z,7.02
2024-05-09T08:34:13.491Z,7.19
2024-05-09T08:36:42.637Z,7.21
2024-05-09T08:39:13.688Z,7.13
2024-05-09T08:41:43.446Z,7.31
2024-05-09T08:44:15.556Z,7.26
2024-05-09T08:46:54.638Z,7.11
2024-05-09T08:49:32.949Z,7.32
2024-05-09T08:52:01.361Z,7.15
2024-05-09T08:54:33.497Z,7.27
2024-05-09T08:57:02.879Z,7.30
2024-05-09T08:59:40.507Z,7.36
2024-05-09T09:02:17.268Z,7.64
2024-05-09T09:05:05.013Z,7.69
2024-05-09T09:07:39.420Z,7.72
2024-05-09T09:10:17.698Z,7.50
2024-05-09T09:13:01.552Z,7.60
2024-05-09T09:15:33.039Z,7.65
2024-05-09T09:18:03.344Z,7.85
2024-05-09T09:20:37.281Z,7.96
2024-05-09T09:23:09.383Z,8.02
2024-05-09T09:25:45.558Z,8.12
2024-05-09T09:28:27.540Z,7.93
2024-05-09T09:33:49.794Z,8.04
2024-05-09T09:36:28.268Z,8.07
2024-05-09T09:38:58.688Z,8.29
2024-05-09T09:41:38.661Z,8.26
2024-05-09T09:44:12.756Z,8.03
2024-05-09T09:46:46.763Z,8.16
2024-05-09T09:49:18.850Z,8.28
2024-05-09T09:51:54.914Z,8.14
2024-05-09T09:54:25.847Z,8.38
2024-05-09T09:57:05.046Z,8.52
2024-05-09T09:59:39.697Z,8.76
2024-05-09T10:02:11.466Z,8.87
2024-05-09T10:04:40.720Z,8.88
2024-05-09T10:07:16.767Z,8.96
2024-05-09T10:09:46.642Z,8.59
2024-05-09T10:12:18.979Z,8.82
2024-05-09T10:14:51.349Z,8.72
2024-05-09T10:17:22.800Z,8.61
2024-05-09T10:19:51.668Z,8.68
2024-05-09T10:22:35.128Z,8.65
2024-05-09T10:25:08.767Z,8.94
2024-05-09T10:27:42.438Z,8.82
2024-05-09T10:30:17.885Z,9.16
2024-05-09T10:33:00.833Z,9.31
2024-05-09T10:35:41.700Z,9.33
2024-05-09T10:38:17.397Z,9.41
2024-05-09T10:40:50.448Z,9.43
2024-05-09T10:43:25.145Z,9.40
2024-05-09T10:45:57.567Z,9.43
2024-05-09T10:48:29.984Z,9.49
2024-05-09T10:50:58.446Z,9.43
2024-05-09T10:53:35.239Z,9.38
2024-05-09T10:56:03.838Z,9.57
2024-05-09T10:58:36.401Z,9.62
2024-05-09T11:01:07.258Z,9.84
2024-05-09T11:03:42.438Z,9.76
2024-05-09T11:06:15.305Z,9.71
2024-05-09T11:09:07.960Z,10.08
2024-05-09T11:11:39.224Z,9.95
2024-05-09T11:14:17.633Z,9.91
2024-05-09T11:16:46.825Z,9.94
2024-05-09T11:19:19.905Z,9.69
2024-05-09T11:21:55.937Z,10.00
2024-05-09T11:24:34.489Z,10.06
2024-05-09T11:27:22.596Z,10.21
2024-05-09T11:29:54.431Z,10.19
2024-05-09T11:32:30.207Z,9.80
2024-05-09T11:35:02.948Z,9.94
2024-05-09T11:37:37.231Z,9.71
2024-05-09T11:40:21.005Z,9.76
2024-05-09T11:42:53.699Z,10.10
2024-05-09T11:45:26.133Z,10.18
2024-05-09T11:47:56.192Z,10.14
2024-05-09T11:50:35.438Z,10.15
2024-05-09T11:53:05.752Z,10.30
2024-05-09T11:55:39.711Z,10.18
2024-05-09T11:58:08.799Z,10.33
2024-05-09T12:00:40.080Z,10.00
2024-05-09T12:03:10.479Z,10.15
2024-05-09T12:05:45.197Z,10.36
2024-05-09T12:08:20.720Z,10.49
2024-05-09T12:10:57.288Z,10.48
2024-05-09T12:13:29.054Z,10.57
2024-05-09T12:16:01.273Z,10.57
2024-05-09T12:18:30.774Z,10.61
2024-05-09T12:21:12.498Z,10.55
2024-05-09T12:23:41.741Z,10.62
2024-05-09T12:26:19.422Z,10.65
2024-05-09T12:28:48.195Z,10.83
2024-05-09T12:31:32.808Z,10.94
2024-05-09T12:34:27.607Z,11.30
2024-05-09T12:37:16.038Z,11.28
2024-05-09T12:39:45.520Z,11.29
2024-05-09T12:42:27.228Z,11.28
2024-05-09T12:44:57.188Z,11.35
2024-05-09T12:47:28.983Z,10.89
2024-05-09T12:49:59.247Z,10.80
2024-05-09T12:52:39.280Z,11.08
2024-05-09T12:55:14.495Z,10.73
2024-05-09T12:58:15.776Z,11.01
2024-05-09T13:00:53.646Z,11.31
2024-05-09T13:03:22.859Z,11.20
2024-05-09T13:05:54.796Z,10.96
2024-05-09T13:08:23.778Z,10.89
2024-05-09T13:10:57.122Z,10.68
2024-05-09T13:13:29.222Z,10.61
2024-05-09T13:16:01.770Z,10.76
2024-05-09T13:18:30.780Z,10.81
2024-05-09T13:21:06.887Z,10.96
2024-05-09T13:23:35.880Z,11.06
2024-05-09T13:26:06.843Z,10.74
2024-05-09T13:28:40.173Z,10.82
2024-05-09T13:31:13.952Z,10.90
2024-05-09T13:33:46.300Z,10.89
2024-05-09T13:36:17.433Z,10.79
2024-05-09T13:38:58.963Z,10.65
2024-05-09T13:41:31.535Z,10.56
2024-05-09T13:44:02.723Z,10.26
2024-05-09T13:46:37.493Z,10.05
2024-05-09T13:49:09.416Z,9.92
2024-05-09T13:51:46.058Z,10.09
2024-05-09T13:54:20.175Z,9.94
2024-05-09T13:56:52.432Z,9.97
2024-05-09T13:59:26.654Z,10.12
2024-05-09T14:01:55.073Z,10.05
2024-05-09T14:04:26.140Z,10.06
2024-05-09T14:06:54.643Z,10.35
2024-05-09T14:09:25.535Z,10.41
2024-05-09T14:12:01.916Z,10.41
2024-05-09T14:14:38.762Z,10.47
2024-05-09T14:17:09.073Z,10.64
2024-05-09T14:19:41.323Z,10.89
2024-05-09T14:22:10.995Z,10.98
2024-05-09T14:24:45.097Z,11.33
2024-05-09T14:27:13.360Z,11.59
2024-05-09T14:29:46.741Z,11.90
2024-05-09T14:32:18.767Z,11.96
2024-05-09T14:34:52.630Z,12.07
2024-05-09T14:37:24.086Z,12.09
2024-05-09T14:39:55.024Z,12.18
2024-05-09T14:42:24.186Z,12.29
2024-05-09T14:45:00.683Z,12.10
2024-05-09T14:47:29.959Z,12.00
2024-05-09T14:50:00.916Z,12.02
2024-05-09T14:52:31.991Z,12.22
2024-05-09T14:55:07.977Z,12.23
2024-05-09T14:57:42.305Z,12.48
2024-05-09T15:00:24.784Z,12.53
2024-05-09T15:02:57.615Z,12.71
2024-05-09T15:05:31.750Z,12.83
2024-05-09T15:08:08.017Z,12.73
2024-05-09T15:10:44.633Z,12.89
2024-05-09T15:13:16.229Z,13.12
2024-05-09T15:15:58.183Z,13.15
2024-05-09T15:18:29.469Z,13.11
2024-05-09T15:21:01.362Z,13.11
2024-05-09T15:23:39.483Z,13.26
2024-05-09T15:27:13.388Z,13.17
2024-05-09T15:29:44.514Z,13.39
2024-05-09T15:32:21.902Z,13.54
2024-05-09T15:34:51.552Z,13.43
2024-05-09T15:37:26.186Z,13.39
2024-05-09T15:39:55.779Z,13.62
2024-05-09T15:42:30.730Z,13.59
2024-05-09T15:45:07.244Z,13.78
2024-05-09T15:47:40.644Z,13.59
2024-05-09T15:50:20.275Z,13.62
2024-05-09T15:53:02.100Z,13.50
2024-05-09T15:55:34.801Z,13.69
2024-05-09T15:58:09.896Z,13.81
2024-05-09T16:00:42.267Z,13.74
2024-05-09T16:03:21.318Z,13.49
2024-05-09T16:05:52.069Z,13.41
2024-05-09T16:08:25.721Z,13.52
2024-05-09T16:10:54.877Z,13.76
2024-05-09T16:13:41.366Z,13.84
2024-05-09T16:16:12.972Z,14.06
2024-05-09T16:18:41.855Z,14.10
2024-05-09T16:21:16.049Z,14.01
2024-05-09T16:23:44.276Z,13.91
2024-05-09T16:26:17.740Z,13.87
2024-05-09T16:28:53.058Z,13.86
2024-05-09T16:31:24.204Z,13.88
2024-05-09T16:33:56.159Z,13.94
2024-05-09T16:36:30.514Z,13.94
2024-05-09T16:39:01.827Z,13.85
2024-05-09T16:41:36.457Z,13.87
2024-05-09T16:44:10.262Z,13.96
2024-05-09T16:46:46.191Z,13.94
2024-05-09T16:49:14.688Z,14.09
2024-05-09T16:51:47.137Z,14.06
2024-05-09T16:54:19.488Z,14.04
2024-05-09T16:56:52.284Z,13.90
2024-05-09T16:59:26.319Z,13.69
2024-05-09T17:02:36.033Z,13.69
2024-05-09T17:05:08.350Z,13.40
2024-05-09T17:07:45.183Z,13.32
2024-05-09T17:10:22.488Z,13.13
2024-05-09T17:13:05.762Z,12.71
2024-05-09T17:15:44.513Z,12.16
2024-05-09T17:18:16.819Z,11.62
2024-05-09T17:20:47.686Z,11.17
2024-05-09T17:23:16.031Z,10.71
2024-05-09T17:25:47.438Z,10.45
2024-05-09T17:28:16.114Z,10.23
2024-05-09T17:30:49.715Z,9.97
2024-05-09T17:33:18.225Z,9.80
2024-05-09T17:35:50.898Z,9.67
2024-05-09T17:38:20.517Z,9.54
2024-05-09T17:40:52.449Z,9.47
2024-05-09T17:43:21.137Z,9.45
2024-05-09T17:45:54.779Z,9.55
2024-05-09T17:48:23.860Z,9.58
2024-05-09T17:50:57.156Z,9.39
2024-05-09T17:53:25.371Z,9.35
2024-05-09T17:55:56.631Z,9.31
2024-05-09T17:58:25.067Z,9.27
2024-05-09T18:01:02.049Z,9.08
2024-05-09T18:03:31.958Z,8.91
2024-05-09T18:06:05.682Z,8.82
2024-05-09T18:08:33.958Z,8.68
2024-05-09T18:11:08.156Z,8.59
2024-05-09T18:13:36.506Z,8.52
2024-05-09T18:16:11.504Z,8.46
2024-05-09T18:18:48.211Z,8.29
2024-05-09T18:21:19.755Z,8.20
2024-05-09T18:23:48.271Z,8.17
2024-05-09T18:26:19.055Z,8.02
2024-05-09T18:28:47.530Z,7.95
2024-05-09T18:31:21.504Z,7.92
2024-05-09T18:33:51.280Z,7.84
2024-05-09T18:36:22.463Z,7.73
2024-05-09T18:38:52.115Z,7.69
2024-05-09T18:41:23.498Z,7.65
2024-05-09T18:43:53.656Z,7.59
2024-05-09T18:46:28.604Z,7.58
2024-05-09T18:49:00.728Z,7.53
2024-05-09T18:51:32.176Z,7.47
2024-05-09T18:54:01.811Z,7.33
2024-05-09T18:56:32.826Z,7.33
2024-05-09T18:59:03.759Z,7.23
2024-05-09T19:01:36.547Z,7.19
2024-05-09T19:04:08.768Z,7.12
2024-05-09T19:06:44.679Z,6.99
2024-05-09T19:09:17.128Z,6.97
2024-05-09T19:11:45.410Z,6.93
2024-05-09T19:14:19.813Z,6.89
2024-05-09T19:16:52.862Z,6.87
2024-05-09T19:19:34.405Z,6.87
2024-05-09T19:22:07.406Z,6.76
2024-05-09T19:24:43.534Z,6.72
2024-05-09T19:27:13.987Z,6.63
2024-05-09T19:29:45.454Z,6.64
2024-05-09T19:32:35.417Z,6.56
2024-05-09T19:35:06.466Z,6.54
2024-05-09T19:37:37.407Z,6.43
2024-05-09T19:40:24.195Z,6.45
2024-05-09T19:43:02.962Z,6.26
2024-05-09T19:45:33.932Z,6.26
2024-05-09T19:48:14.839Z,6.19
2024-05-09T19:50:44.764Z,6.16
2024-05-09T19:53:16.473Z,6.09
2024-05-09T19:55:50.415Z,6.12
2024-05-09T19:58:25.882Z,6.01
2024-05-09T20:00:55.462Z,6.08
2024-05-09T20:03:29.214Z,6.00
2024-05-09T20:05:59.229Z,5.89
2024-05-09T20:08:31.862Z,5.89
2024-05-09T20:11:02.219Z,5.78
2024-05-09T20:13:33.203Z,5.67
2024-05-09T20:16:02.612Z,5.73
2024-05-09T20:18:40.856Z,5.65
2024-05-09T20:21:11.738Z,5.70
2024-05-09T20:23:46.595Z,5.60
2024-05-09T20:26:15.506Z,5.60
2024-05-09T20:28:46.597Z,5.58
2024-05-09T20:31:21.506Z,5.51
2024-05-09T20:33:55.588Z,5.46
2024-05-09T20:36:25.031Z,5.52
2024-05-09T20:38:56.258Z,5.42
2024-05-09T20:41:24.415Z,5.32
2024-05-09T20:44:05.186Z,5.42
2024-05-09T20:46:35.603Z,5.31
2024-05-09T20:49:10.289Z,5.26
2024-05-09T20:51:43.751Z,5.21
2024-05-09T20:54:17.526Z,5.16
2024-05-09T20:56:48.941Z,5.11
2024-05-09T20:59:21.471Z,5.12
2024-05-09T21:01:51.504Z,5.06
2024-05-09T21:05:05.137Z,5.03
2024-05-09T21:07:51.352Z,4.99
2024-05-09T21:10:27.245Z,5.04
2024-05-09T21:13:00.359Z,4.88
2024-05-09T21:15:40.341Z,4.93
2024-05-09T21:18:12.003Z,4.91
2024-05-09T21:20:49.579Z,4.80
2024-05-09T21:23:26.457Z,4.85
2024-05-09T21:26:02.460Z,4.68
2024-05-09T21:28:31.059Z,4.79
2024-05-09T21:31:02.016Z,4.70
2024-05-09T21:33:30.520Z,4.67
2024-05-09T21:36:04.759Z,4.63
2024-05-09T21:38:34.361Z,4.72
2024-05-09T21:41:05.216Z,4.68
2024-05-09T21:43:34.562Z,4.66
2024-05-09T21:46:05.447Z,4.68
2024-05-09T21:48:44.855Z,4.69
2024-05-09T21:51:20.237Z,4.63
2024-05-09T21:53:49.644Z,4.64
2024-05-09T21:56:21.994Z,4.53
2024-05-09T21:58:50.192Z,4.47
2024-05-09T22:01:21.123Z,4.45
2024-05-09T22:03:49.698Z,4.37
2024-05-09T22:06:23.230Z,4.34
2024-05-09T22:08:51.457Z,4.39
2024-05-09T22:11:26.055Z,4.34
2024-05-09T22:13:54.332Z,4.28
2024-05-09T22:16:25.277Z,4.34
2024-05-09T22:18:53.722Z,4.36
2024-05-09T22:21:29.467Z,4.37
2024-05-09T22:24:00.936Z,4.18
2024-05-09T22:26:32.958Z,4.30
2024-05-09T22:31:54.111Z,4.39
2024-05-09T22:34:26.349Z,4.32
2024-05-09T22:37:02.235Z,4.47
2024-05-09T22:39:31.607Z,4.33
2024-05-09T22:42:06.242Z,4.41
2024-05-09T22:44:36.071Z,4.41
2024-05-09T22:47:07.661Z,4.48
2024-05-09T22:49:39.055Z,4.46
2024-05-09T22:52:13.359Z,4.53
2024-05-09T22:54:41.721Z,4.44
2024-05-09T22:57:17.244Z,4.51
2024-05-09T22:59:51.673Z,4.44
2024-05-09T23:02:22.594Z,4.53
2024-05-09T23:04:51.367Z,4.49
2024-05-09T23:07:25.775Z,4.56
2024-05-09T23:09:58.753Z,4.61
2024-05-09T23:12:31.559Z,4.51
2024-05-09T23:15:00.689Z,4.60
2024-05-09T23:17:33.022Z,4.48
2024-05-09T23:20:03.841Z,4.52
2024-05-09T23:22:38.723Z,4.59
2024-05-09T23:25:07.816Z,4.58
2024-05-09T23:27:44.432Z,4.53
2024-05-09T23:30:21.851Z,4.62
2024-05-09T23:32:59.846Z,4.60
2024-05-09T23:35:28.612Z,4.60
2024-05-09T23:38:02.145Z,4.62
2024-05-09T23:43:17.392Z,4.61
2024-05-09T23:45:54.356Z,4.55
2024-05-09T23:48:27.823Z,4.57
2024-05-09T23:50:59.919Z,4.62
2024-05-09T23:53:34.939Z,4.59
2024-05-09T23:56:04.193Z,4.56
2024-05-09T23:58:35.838Z,4.61
